Time;durP1;ratioP1;P1;durP2;ratioP2;P2;SDS_P1;SDS_P2;PMS_P1;PMS_P2;Temp;Humidity;BMP_temperature;BMP_pressure;BME280_temperature;BME280_humidity;BME280_pressure;Samples;Min_cycle;Max_cycle;Signal;HPM_P1;HPM_P2
2022/09/06 00:01:49;;;;;;;4.53;2.00;;;;;;;;;;10313169;28;20075;-65
2022/09/06 00:06:48;;;;;;;3.50;2.28;;;;;;;;;;10318370;28;20071;-67
2022/09/06 00:11:46;;;;;;;2.20;1.85;;;;;;;;;;10317729;28;20072;-67
2022/09/06 00:16:44;;;;;;;2.58;2.30;;;;;;;;;;10306714;28;20068;-66
2022/09/06 00:21:44;;;;;;;4.82;2.30;;;;;;;;;;10289637;28;20494;-65
2022/09/06 00:26:42;;;;;;;3.90;1.90;;;;;;;;;;10306768;28;20068;-65
2022/09/06 00:31:40;;;;;;;1.98;1.70;;;;;;;;;;10299650;28;20084;-66
2022/09/06 00:36:38;;;;;;;5.40;2.17;;;;;;;;;;10300533;28;20052;-65
2022/09/06 00:41:38;;;;;;;5.35;2.33;;;;;;;;;;10301519;28;20064;-65
2022/09/06 00:46:37;;;;;;;2.47;1.92;;;;;;;;;;10301303;28;20060;-66
2022/09/06 00:51:36;;;;;;;5.38;2.40;;;;;;;;;;10301900;28;20072;-65
2022/09/06 00:56:35;;;;;;;3.22;1.85;;;;;;;;;;10299869;28;20075;-65
2022/09/06 01:01:35;;;;;;;2.33;2.05;;;;;;;;;;10298800;28;20329;-66
2022/09/06 01:06:38;;;;;;;3.40;2.00;;;;;;;;;;10300221;28;20070;-66
2022/09/06 01:11:44;;;;;;;9.45;2.33;;;;;;;;;;10303871;28;20067;-66
2022/09/06 01:16:49;;;;;;;4.22;2.30;;;;;;;;;;10298492;28;20536;-66
2022/09/06 01:21:50;;;;;;;3.33;2.20;;;;;;;;;;10301751;28;20080;-66
2022/09/06 01:27:09;;;;;;;2.50;1.95;;;;;;;;;;10302240;28;20541;-65
2022/09/06 01:32:13;;;;;;;7.13;2.28;;;;;;;;;;10262332;28;20077;-65
2022/09/06 01:37:13;;;;;;;4.82;1.88;;;;;;;;;;10298883;28;20064;-65
2022/09/06 01:42:13;;;;;;;4.00;1.90;;;;;;;;;;10300169;28;20072;-65
2022/09/06 01:47:20;;;;;;;2.03;1.80;;;;;;;;;;10295978;28;20075;-66
2022/09/06 01:52:20;;;;;;;6.28;2.47;;;;;;;;;;10299896;28;20478;-64
2022/09/06 01:57:23;;;;;;;2.25;2.05;;;;;;;;;;10298627;28;20072;-64
2022/09/06 02:02:26;;;;;;;4.05;1.95;;;;;;;;;;10300112;28;20080;-64
2022/09/06 02:07:25;;;;;;;2.85;2.20;;;;;;;;;;10301010;28;20497;-64
2022/09/06 02:12:25;;;;;;;3.75;1.92;;;;;;;;;;10300534;28;20071;-64
2022/09/06 02:17:27;;;;;;;5.43;2.42;;;;;;;;;;10305658;28;20076;-63
2022/09/06 02:22:27;;;;;;;3.15;2.03;;;;;;;;;;10300076;28;20083;-63
2022/09/06 02:27:26;;;;;;;4.05;2.67;;;;;;;;;;10305563;28;20044;-63
2022/09/06 02:32:26;;;;;;;3.72;3.17;;;;;;;;;;10308484;28;20099;-63
2022/09/06 02:37:25;;;;;;;4.82;2.53;;;;;;;;;;10308804;28;20556;-63
2022/09/06 02:42:24;;;;;;;3.08;2.13;;;;;;;;;;10309029;28;20064;-64
2022/09/06 02:47:22;;;;;;;3.20;2.10;;;;;;;;;;10308336;28;20094;-63
2022/09/06 02:52:22;;;;;;;4.47;2.40;;;;;;;;;;10307853;28;20106;-64
2022/09/06 02:57:20;;;;;;;3.88;2.15;;;;;;;;;;10306558;28;20072;-62
2022/09/06 03:02:19;;;;;;;6.25;2.78;;;;;;;;;;10317653;28;20095;-64
2022/09/06 03:07:17;;;;;;;6.82;3.00;;;;;;;;;;10319697;28;20044;-63
2022/09/06 03:12:17;;;;;;;6.18;2.72;;;;;;;;;;10308502;28;20084;-63
2022/09/06 03:17:15;;;;;;;4.70;2.75;;;;;;;;;;10306646;28;20069;-63
2022/09/06 03:22:13;;;;;;;5.80;2.42;;;;;;;;;;10305376;28;20080;-63
2022/09/06 03:27:12;;;;;;;2.92;2.63;;;;;;;;;;10305671;28;20076;-63
2022/09/06 03:32:12;;;;;;;4.78;2.30;;;;;;;;;;10290006;28;20059;-65
2022/09/06 03:37:10;;;;;;;6.35;3.00;;;;;;;;;;10298841;28;20080;-64
2022/09/06 03:42:08;;;;;;;6.72;3.00;;;;;;;;;;10299925;28;20072;-64
2022/09/06 03:47:06;;;;;;;7.28;2.70;;;;;;;;;;10318952;28;20510;-64
2022/09/06 03:52:06;;;;;;;2.47;2.28;;;;;;;;;;10318983;28;20064;-64
2022/09/06 03:57:04;;;;;;;3.20;2.38;;;;;;;;;;10304334;28;20072;-63
2022/09/06 04:02:03;;;;;;;4.05;2.70;;;;;;;;;;10303363;28;20526;-64
2022/09/06 04:07:01;;;;;;;5.85;2.40;;;;;;;;;;10304143;28;20459;-64
2022/09/06 04:12:01;;;;;;;4.13;2.33;;;;;;;;;;10315137;28;20041;-64
2022/09/06 04:16:59;;;;;;;6.07;2.50;;;;;;;;;;10318040;28;20142;-64
2022/09/06 04:21:57;;;;;;;6.63;2.78;;;;;;;;;;10318094;28;20075;-64
2022/09/06 04:26:55;;;;;;;5.80;3.03;;;;;;;;;;10309045;28;20072;-64
2022/09/06 04:31:55;;;;;;;5.63;3.10;;;;;;;;;;10300808;28;20073;-64
2022/09/06 04:36:53;;;;;;;11.00;3.55;;;;;;;;;;10314032;28;20047;-64
2022/09/06 04:41:52;;;;;;;5.65;3.05;;;;;;;;;;10316399;28;20513;-64
2022/09/06 04:46:50;;;;;;;5.55;2.95;;;;;;;;;;10303322;28;20104;-63
2022/09/06 04:51:49;;;;;;;9.80;2.95;;;;;;;;;;10302322;28;20064;-63
2022/09/06 04:56:48;;;;;;;3.92;3.42;;;;;;;;;;10308991;28;20067;-63
2022/09/06 05:01:46;;;;;;;8.80;2.97;;;;;;;;;;10287458;28;20530;-64
2022/09/06 05:06:44;;;;;;;13.43;9.57;;;;;;;;;;10299504;28;20064;-64
2022/09/06 05:11:44;;;;;;;4.68;3.40;;;;;;;;;;10300054;28;20069;-62
2022/09/06 05:16:44;;;;;;;5.65;2.65;;;;;;;;;;10301640;28;20071;-63
2022/09/06 05:21:42;;;;;;;2.97;2.65;;;;;;;;;;10304306;28;20080;-63
2022/09/06 05:26:40;;;;;;;2.40;2.15;;;;;;;;;;10306892;28;20542;-63
2022/09/06 05:31:40;;;;;;;5.07;2.50;;;;;;;;;;10315163;28;20051;-63
2022/09/06 05:36:40;;;;;;;4.43;2.30;;;;;;;;;;10314477;28;20048;-63
2022/09/06 05:41:38;;;;;;;4.13;2.45;;;;;;;;;;10304195;28;20532;-63
2022/09/06 05:46:43;;;;;;;3.67;2.47;;;;;;;;;;10302672;28;20071;-63
2022/09/06 05:51:42;;;;;;;13.55;2.75;;;;;;;;;;10306998;28;20075;-64
2022/09/06 05:56:40;;;;;;;10.48;6.25;;;;;;;;;;10302074;28;20075;-64
2022/09/06 06:01:46;;;;;;;20.65;13.45;;;;;;;;;;10315107;28;20536;-64
2022/09/06 06:06:47;;;;;;;11.57;8.57;;;;;;;;;;10321991;28;20079;-64
2022/09/06 06:11:46;;;;;;;5.15;3.47;;;;;;;;;;10323238;28;20084;-64
2022/09/06 06:16:44;;;;;;;33.88;26.75;;;;;;;;;;10308470;28;20125;-64
2022/09/06 06:21:43;;;;;;;13.40;6.47;;;;;;;;;;10310790;28;20068;-64
2022/09/06 06:26:42;;;;;;;9.48;5.05;;;;;;;;;;10314554;28;20064;-64
2022/09/06 06:31:41;;;;;;;9.07;3.47;;;;;;;;;;10309912;28;20076;-63
2022/09/06 06:36:39;;;;;;;6.18;3.80;;;;;;;;;;10311380;28;20068;-64
2022/09/06 06:41:37;;;;;;;11.70;5.70;;;;;;;;;;10292101;28;20529;-63
2022/09/06 06:46:56;;;;;;;18.98;5.10;;;;;;;;;;10302536;28;20099;-64
2022/09/06 06:51:55;;;;;;;10.48;3.78;;;;;;;;;;10316973;28;20087;-63
2022/09/06 06:56:53;;;;;;;5.25;4.07;;;;;;;;;;10318920;28;20071;-65
2022/09/06 07:01:52;;;;;;;6.10;3.65;;;;;;;;;;10320020;28;20064;-63
2022/09/06 07:06:53;;;;;;;5.40;3.75;;;;;;;;;;10308928;28;20076;-62
2022/09/06 07:12:11;;;;;;;12.32;5.50;;;;;;;;;;10307061;28;20079;-63
2022/09/06 07:17:09;;;;;;;6.63;5.60;;;;;;;;;;10310335;28;20477;-63
2022/09/06 07:22:09;;;;;;;10.40;3.70;;;;;;;;;;10308666;28;20073;-65
2022/09/06 07:27:10;;;;;;;6.97;3.80;;;;;;;;;;10305927;28;20076;-63
2022/09/06 07:32:29;;;;;;;5.25;4.38;;;;;;;;;;10303219;28;20076;-62
2022/09/06 07:37:29;;;;;;;5.22;3.53;;;;;;;;;;10304325;28;20071;-61
2022/09/06 07:42:27;;;;;;;10.63;3.65;;;;;;;;;;10305914;28;20453;-61
2022/09/06 07:47:32;;;;;;;6.25;3.47;;;;;;;;;;10309844;28;20036;-62
2022/09/06 07:52:52;;;;;;;3.92;2.60;;;;;;;;;;10301288;28;20099;-63
2022/09/06 07:58:10;;;;;;;4.70;4.05;;;;;;;;;;10303586;28;20048;-62
2022/09/06 08:03:09;;;;;;;6.18;3.25;;;;;;;;;;10304366;28;20523;-62
2022/09/06 08:08:08;;;;;;;6.45;3.03;;;;;;;;;;10302465;28;20079;-62
2022/09/06 08:13:27;;;;;;;6.68;3.92;;;;;;;;;;10302261;28;20083;-62
2022/09/06 08:18:25;;;;;;;3.75;2.63;;;;;;;;;;10305835;28;20160;-63
2022/09/06 08:23:25;;;;;;;4.38;2.70;;;;;;;;;;10298184;28;20075;-62
2022/09/06 08:28:24;;;;;;;11.65;3.70;;;;;;;;;;10314390;28;20072;-63
2022/09/06 08:33:26;;;;;;;4.90;3.17;;;;;;;;;;10311462;28;20496;-62
2022/09/06 08:38:27;;;;;;;3.05;2.72;;;;;;;;;;10312487;28;20083;-61
2022/09/06 08:43:25;;;;;;;4.22;2.53;;;;;;;;;;10296550;28;20072;-61
2022/09/06 08:48:24;;;;;;;6.45;5.13;;;;;;;;;;10313122;28;20067;-60
2022/09/06 08:53:22;;;;;;;4.32;2.83;;;;;;;;;;10317243;28;20052;-62
2022/09/06 08:58:26;;;;;;;6.72;2.80;;;;;;;;;;10316035;28;20075;-61
2022/09/06 09:03:26;;;;;;;8.93;3.30;;;;;;;;;;10309136;28;20461;-61
2022/09/06 09:08:26;;;;;;;10.27;2.97;;;;;;;;;;10299588;28;20075;-61
2022/09/06 09:13:30;;;;;;;3.40;2.60;;;;;;;;;;10297726;28;20076;-61
2022/09/06 09:18:30;;;;;;;5.25;2.60;;;;;;;;;;10301529;28;20083;-61
2022/09/06 09:23:29;;;;;;;5.53;3.00;;;;;;;;;;10300490;28;20522;-61
2022/09/06 09:28:29;;;;;;;5.90;2.50;;;;;;;;;;10298686;28;20457;-62
2022/09/06 09:33:28;;;;;;;7.38;2.53;;;;;;;;;;10297155;28;20076;-63
2022/09/06 09:38:27;;;;;;;5.28;2.60;;;;;;;;;;10300118;28;20064;-62
2022/09/06 09:43:28;;;;;;;11.32;3.47;;;;;;;;;;10298473;28;20083;-62
2022/09/06 09:48:27;;;;;;;5.95;3.33;;;;;;;;;;10299071;28;20549;-62
2022/09/06 09:53:26;;;;;;;6.03;3.17;;;;;;;;;;10298712;28;20040;-63
2022/09/06 09:58:30;;;;;;;3.67;2.42;;;;;;;;;;10312987;28;20067;-62
2022/09/06 10:03:30;;;;;;;6.40;2.88;;;;;;;;;;10298899;28;20083;-62
2022/09/06 10:08:30;;;;;;;7.97;3.08;;;;;;;;;;10299807;28;20489;-62
2022/09/06 10:13:29;;;;;;;9.00;2.67;;;;;;;;;;10299411;28;20068;-62
2022/09/06 10:18:30;;;;;;;3.47;2.17;;;;;;;;;;10298208;28;20079;-62
2022/09/06 10:23:33;;;;;;;4.53;2.40;;;;;;;;;;10312617;28;20068;-62
2022/09/06 10:28:54;;;;;;;5.70;3.00;;;;;;;;;;10298247;28;20521;-62
2022/09/06 10:34:05;;;;;;;17.15;4.15;;;;;;;;;;10297200;28;20450;-62
2022/09/06 10:39:06;;;;;;;3.75;2.60;;;;;;;;;;10298071;28;20064;-62
2022/09/06 10:44:08;;;;;;;5.18;3.17;;;;;;;;;;10299703;28;20075;-63
2022/09/06 10:49:10;;;;;;;4.03;3.45;;;;;;;;;;10305844;28;20075;-62
2022/09/06 10:54:09;;;;;;;3.10;2.80;;;;;;;;;;10306203;28;20079;-63
2022/09/06 10:59:11;;;;;;;4.78;2.92;;;;;;;;;;10305522;28;20107;-60
2022/09/06 11:04:32;;;;;;;3.17;2.80;;;;;;;;;;10298330;28;20076;-62
2022/09/06 11:09:34;;;;;;;6.20;4.25;;;;;;;;;;10297426;28;20486;-62
2022/09/06 11:14:33;;;;;;;14.90;4.70;;;;;;;;;;10304366;28;20510;-62
2022/09/06 11:19:38;;;;;;;34.42;7.50;;;;;;;;;;10302633;28;20080;-62
2022/09/06 11:24:45;;;;;;;6.53;3.60;;;;;;;;;;10313113;28;20070;-62
2022/09/06 11:29:44;;;;;;;8.55;4.70;;;;;;;;;;10319116;28;20041;-62
2022/09/06 11:34:51;;;;;;;4.90;2.95;;;;;;;;;;10319589;28;20076;-61
2022/09/06 11:40:03;;;;;;;5.22;4.13;;;;;;;;;;10301938;28;20083;-61
2022/09/06 11:45:38;;;;;;;5.65;3.22;;;;;;;;;;10303499;28;20076;-61
2022/09/06 11:50:55;;;;;;;3.78;2.58;;;;;;;;;;10303753;28;20166;-62
2022/09/06 11:56:10;;;;;;;5.03;2.78;;;;;;;;;;10304178;28;20068;-61
2022/09/06 12:01:27;;;;;;;4.65;3.65;;;;;;;;;;10301889;28;20068;-61
2022/09/06 12:06:26;;;;;;;6.03;3.50;;;;;;;;;;10298645;28;20076;-61
2022/09/06 12:11:34;;;;;;;13.52;3.95;;;;;;;;;;10307876;28;20508;-61
2022/09/06 12:16:50;;;;;;;8.45;3.47;;;;;;;;;;10318999;28;20560;-62
2022/09/06 12:21:51;;;;;;;4.40;3.17;;;;;;;;;;10317055;28;20072;-63
2022/09/06 12:26:51;;;;;;;8.82;3.40;;;;;;;;;;10309675;28;20087;-62
2022/09/06 12:31:54;;;;;;;5.93;2.88;;;;;;;;;;10304804;28;20514;-62
2022/09/06 12:36:57;;;;;;;5.15;3.10;;;;;;;;;;10303418;28;20067;-61
2022/09/06 12:41:59;;;;;;;7.85;3.83;;;;;;;;;;10308927;28;20088;-62
2022/09/06 12:47:01;;;;;;;5.20;4.03;;;;;;;;;;10314046;28;20072;-63
2022/09/06 12:52:06;;;;;;;3.78;3.08;;;;;;;;;;10311982;28;20166;-61
2022/09/06 12:57:14;;;;;;;8.90;4.22;;;;;;;;;;10307223;28;20068;-62
2022/09/06 13:02:16;;;;;;;8.88;4.50;;;;;;;;;;10302097;28;20443;-62
2022/09/06 13:07:15;;;;;;;3.72;3.42;;;;;;;;;;10300630;28;20060;-62
2022/09/06 13:12:19;;;;;;;5.90;2.70;;;;;;;;;;10296921;28;20072;-62
2022/09/06 13:17:22;;;;;;;5.40;3.88;;;;;;;;;;10298182;28;20068;-62
2022/09/06 13:22:37;;;;;;;4.32;3.53;;;;;;;;;;10299195;28;20482;-62
2022/09/06 13:27:37;;;;;;;4.25;3.80;;;;;;;;;;10299984;28;20071;-62
2022/09/06 13:32:36;;;;;;;5.10;2.92;;;;;;;;;;10300478;28;20072;-62
2022/09/06 13:37:38;;;;;;;5.28;3.20;;;;;;;;;;10302274;28;20080;-62
2022/09/06 13:42:37;;;;;;;3.83;3.50;;;;;;;;;;10300174;28;20056;-62
2022/09/06 13:47:36;;;;;;;3.65;3.28;;;;;;;;;;10300227;28;20080;-62
2022/09/06 13:52:35;;;;;;;6.53;3.47;;;;;;;;;;10306089;28;20072;-61
2022/09/06 13:57:33;;;;;;;4.78;3.08;;;;;;;;;;10304528;28;20540;-62
2022/09/06 14:02:33;;;;;;;6.82;3.47;;;;;;;;;;10309853;28;20075;-62
2022/09/06 14:07:31;;;;;;;6.13;3.65;;;;;;;;;;10305019;28;20075;-62
2022/09/06 14:12:35;;;;;;;6.22;4.05;;;;;;;;;;10314056;28;20429;-62
2022/09/06 14:17:33;;;;;;;;;;;;;;;;;;10316086;28;20080;-62
2022/09/06 14:22:33;;;;;;;6.15;3.35;;;;;;;;;;10324746;28;19966;-62
2022/09/06 14:27:31;;;;;;;4.90;3.55;;;;;;;;;;10311488;28;20067;-61
2022/09/06 14:32:29;;;;;;;4.63;3.42;;;;;;;;;;10314023;28;20080;-62
2022/09/06 14:37:28;;;;;;;5.00;4.35;;;;;;;;;;10321162;28;20079;-62
2022/09/06 14:42:27;;;;;;;9.45;3.35;;;;;;;;;;10307009;28;20068;-62
2022/09/06 14:47:26;;;;;;;5.20;4.10;;;;;;;;;;10300280;28;20360;-62
2022/09/06 14:52:25;;;;;;;9.25;4.88;;;;;;;;;;10311881;28;20079;-61
2022/09/06 14:57:23;;;;;;;7.55;4.95;;;;;;;;;;10316507;28;20072;-62
2022/09/06 15:02:24;;;;;;;4.43;3.13;;;;;;;;;;10308159;28;20060;-62
2022/09/06 15:07:23;;;;;;;6.85;4.35;;;;;;;;;;10306002;28;20087;-62
2022/09/06 15:12:21;;;;;;;7.03;5.72;;;;;;;;;;10316401;28;20074;-61
2022/09/06 15:17:20;;;;;;;4.50;3.85;;;;;;;;;;10319094;28;20083;-61
2022/09/06 15:22:19;;;;;;;5.95;5.30;;;;;;;;;;10318424;28;20072;-62
2022/09/06 15:27:18;;;;;;;5.70;4.68;;;;;;;;;;10305388;28;20508;-63
2022/09/06 15:32:17;;;;;;;7.45;5.95;;;;;;;;;;10302292;28;20083;-62
2022/09/06 15:37:15;;;;;;;7.40;3.88;;;;;;;;;;10302750;28;20249;-62
2022/09/06 15:42:15;;;;;;;8.50;5.20;;;;;;;;;;10301198;28;20076;-62
2022/09/06 15:47:13;;;;;;;4.70;4.13;;;;;;;;;;10302484;28;20475;-62
2022/09/06 15:52:12;;;;;;;8.93;4.22;;;;;;;;;;10302495;28;20091;-62
2022/09/06 15:57:10;;;;;;;6.55;3.78;;;;;;;;;;10302766;28;20069;-61
2022/09/06 16:02:10;;;;;;;7.30;4.32;;;;;;;;;;10302111;28;20083;-62
2022/09/06 16:07:10;;;;;;;5.80;3.72;;;;;;;;;;10303145;28;20072;-61
2022/09/06 16:12:09;;;;;;;6.45;5.25;;;;;;;;;;10301460;28;20075;-62
2022/09/06 16:17:07;;;;;;;9.02;5.88;;;;;;;;;;10301648;28;20075;-63
2022/09/06 16:22:07;;;;;;;8.93;5.53;;;;;;;;;;10302797;28;20525;-61
2022/09/06 16:27:05;;;;;;;7.53;5.30;;;;;;;;;;10301259;28;20076;-61
2022/09/06 16:32:04;;;;;;;6.85;6.07;;;;;;;;;;10303154;28;20084;-62
2022/09/06 16:37:06;;;;;;;12.63;10.57;;;;;;;;;;10292651;28;20047;-63
2022/09/06 16:42:06;;;;;;;16.30;12.82;;;;;;;;;;10309663;28;20075;-62
2022/09/06 16:47:05;;;;;;;16.48;11.68;;;;;;;;;;10301180;28;20068;-62
2022/09/06 16:52:03;;;;;;;12.88;9.00;;;;;;;;;;10300477;28;20510;-62
2022/09/06 16:57:01;;;;;;;6.72;5.45;;;;;;;;;;10308593;28;20072;-64
2022/09/06 17:02:01;;;;;;;11.38;6.25;;;;;;;;;;10302642;28;20578;-65
2022/09/06 17:07:00;;;;;;;9.82;5.65;;;;;;;;;;10299602;28;20068;-64
2022/09/06 17:11:58;;;;;;;8.98;5.63;;;;;;;;;;10300246;28;20070;-65
2022/09/06 17:17:06;;;;;;;15.15;8.55;;;;;;;;;;10299507;28;20072;-65
2022/09/06 17:22:06;;;;;;;13.40;9.20;;;;;;;;;;10298668;28;20079;-65
2022/09/06 17:27:04;;;;;;;13.32;8.10;;;;;;;;;;10299665;28;20087;-65
2022/09/06 17:32:08;;;;;;;7.72;6.88;;;;;;;;;;10299045;28;20426;-64
2022/09/06 17:37:08;;;;;;;13.85;6.82;;;;;;;;;;10299800;28;20044;-65
2022/09/06 17:42:07;;;;;;;6.90;6.18;;;;;;;;;;10299710;28;20191;-65
2022/09/06 17:47:06;;;;;;;6.05;5.45;;;;;;;;;;10301027;28;20064;-65
2022/09/06 17:52:13;;;;;;;8.20;5.65;;;;;;;;;;10296661;28;20527;-64
2022/09/06 17:57:11;;;;;;;10.00;7.18;;;;;;;;;;10297782;28;20474;-64
2022/09/06 18:02:10;;;;;;;9.48;5.90;;;;;;;;;;10300622;28;20057;-65
2022/09/06 18:07:08;;;;;;;7.72;6.43;;;;;;;;;;10296665;28;20072;-65
2022/09/06 18:12:08;;;;;;;9.45;7.07;;;;;;;;;;10299400;28;20041;-64
2022/09/06 18:17:07;;;;;;;5.78;5.10;;;;;;;;;;10300092;28;20037;-64
2022/09/06 18:22:06;;;;;;;5.93;5.30;;;;;;;;;;10298021;28;20455;-65
2022/09/06 18:27:05;;;;;;;9.73;6.38;;;;;;;;;;10304629;28;20080;-64
2022/09/06 18:32:06;;;;;;;7.00;5.28;;;;;;;;;;10307231;28;20087;-65
2022/09/06 18:37:04;;;;;;;7.75;4.50;;;;;;;;;;10305361;28;20064;-64
2022/09/06 18:42:09;;;;;;;5.20;4.65;;;;;;;;;;10301429;28;20068;-65
2022/09/06 18:47:11;;;;;;;6.05;4.50;;;;;;;;;;10304270;28;20068;-64
2022/09/06 18:52:10;;;;;;;6.45;5.20;;;;;;;;;;10302158;28;20076;-64
2022/09/06 18:57:09;;;;;;;5.32;4.65;;;;;;;;;;10304253;28;20072;-63
2022/09/06 19:02:12;;;;;;;8.35;5.07;;;;;;;;;;10310556;28;20106;-64
2022/09/06 19:07:22;;;;;;;5.70;4.45;;;;;;;;;;10311068;28;20091;-64
2022/09/06 19:12:21;;;;;;;5.00;4.15;;;;;;;;;;10317507;28;20051;-64
2022/09/06 19:17:20;;;;;;;7.53;4.13;;;;;;;;;;10311338;28;20525;-65
2022/09/06 19:22:21;;;;;;;4.45;4.00;;;;;;;;;;10306422;28;20465;-65
2022/09/06 19:27:19;;;;;;;9.57;4.60;;;;;;;;;;10312411;28;20490;-65
2022/09/06 19:32:21;;;;;;;7.15;5.57;;;;;;;;;;10308669;28;20533;-63
2022/09/06 19:37:22;;;;;;;6.00;5.22;;;;;;;;;;10307753;28;20064;-64
2022/09/06 19:42:20;;;;;;;4.78;4.32;;;;;;;;;;10315270;28;20064;-65
2022/09/06 19:47:19;;;;;;;9.02;8.02;;;;;;;;;;10307709;28;20087;-64
2022/09/06 19:52:17;;;;;;;15.32;6.97;;;;;;;;;;10307460;28;20068;-63
2022/09/06 19:57:17;;;;;;;4.95;4.38;;;;;;;;;;10301165;28;20072;-64
2022/09/06 20:02:15;;;;;;;3.55;3.17;;;;;;;;;;10310021;28;20072;-64
2022/09/06 20:07:13;;;;;;;7.15;3.33;;;;;;;;;;10309263;28;20613;-65
2022/09/06 20:12:12;;;;;;;4.88;3.17;;;;;;;;;;10308503;28;20063;-64
2022/09/06 20:17:11;;;;;;;5.90;3.38;;;;;;;;;;10308415;28;20052;-64
2022/09/06 20:22:30;;;;;;;5.18;3.33;;;;;;;;;;10310683;28;20075;-64
2022/09/06 20:27:28;;;;;;;3.30;2.53;;;;;;;;;;10315925;28;20167;-64
2022/09/06 20:32:32;;;;;;;4.13;2.70;;;;;;;;;;10309669;28;20075;-64
2022/09/06 20:37:30;;;;;;;2.90;2.30;;;;;;;;;;10311345;28;20186;-64
2022/09/06 20:42:28;;;;;;;6.85;2.40;;;;;;;;;;10307587;28;20076;-64
2022/09/06 20:47:31;;;;;;;3.42;1.95;;;;;;;;;;10306742;28;20072;-64
2022/09/06 20:52:30;;;;;;;3.75;2.17;;;;;;;;;;10305581;28;20087;-64
2022/09/06 20:57:28;;;;;;;2.22;2.00;;;;;;;;;;10294703;28;20307;-63
2022/09/06 21:02:27;;;;;;;2.22;2.00;;;;;;;;;;10304570;28;20314;-64
2022/09/06 21:07:27;;;;;;;3.13;2.00;;;;;;;;;;10301436;28;20076;-64
2022/09/06 21:12:25;;;;;;;3.67;1.73;;;;;;;;;;10300901;28;20049;-64
2022/09/06 21:17:23;;;;;;;2.35;1.60;;;;;;;;;;10301992;28;20123;-64
2022/09/06 21:22:21;;;;;;;5.40;2.42;;;;;;;;;;10300815;28;20048;-65
2022/09/06 21:27:21;;;;;;;9.13;3.17;;;;;;;;;;10300578;28;20072;-64
2022/09/06 21:32:19;;;;;;;3.42;2.15;;;;;;;;;;10299279;28;20087;-64
2022/09/06 21:37:18;;;;;;;3.97;2.25;;;;;;;;;;10300481;28;20060;-65
2022/09/06 21:42:17;;;;;;;2.85;2.10;;;;;;;;;;10299017;28;20068;-64
2022/09/06 21:47:17;;;;;;;4.35;1.83;;;;;;;;;;10300107;28;20493;-64
2022/09/06 21:52:15;;;;;;;4.25;1.77;;;;;;;;;;10298258;28;20080;-64
2022/09/06 21:57:13;;;;;;;3.80;1.85;;;;;;;;;;10299160;28;20065;-63
2022/09/06 22:02:13;;;;;;;2.53;1.58;;;;;;;;;;10299588;28;20080;-64
2022/09/06 22:07:12;;;;;;;5.50;2.55;;;;;;;;;;10299694;28;20088;-65
2022/09/06 22:12:11;;;;;;;2.53;1.90;;;;;;;;;;10300222;28;20926;-64
2022/09/06 22:17:09;;;;;;;6.55;1.95;;;;;;;;;;10298893;28;20072;-64
2022/09/06 22:22:07;;;;;;;7.30;1.98;;;;;;;;;;10298979;28;20069;-63
2022/09/06 22:27:07;;;;;;;2.33;1.80;;;;;;;;;;10299494;28;20068;-63
2022/09/06 22:32:06;;;;;;;2.60;1.75;;;;;;;;;;10298892;28;20096;-63
2022/09/06 22:37:04;;;;;;;1.60;1.50;;;;;;;;;;10309705;28;20049;-64
2022/09/06 22:42:02;;;;;;;2.78;1.88;;;;;;;;;;10311884;28;20067;-64
2022/09/06 22:47:02;;;;;;;1.90;1.70;;;;;;;;;;10320518;28;20060;-64
2022/09/06 22:52:01;;;;;;;3.72;2.08;;;;;;;;;;10307410;28;20540;-63
2022/09/06 22:56:59;;;;;;;2.42;1.95;;;;;;;;;;10301811;28;20509;-64
2022/09/06 23:01:57;;;;;;;5.28;2.03;;;;;;;;;;10302438;28;20509;-64
2022/09/06 23:06:57;;;;;;;2.78;1.92;;;;;;;;;;10307599;28;20111;-63
2022/09/06 23:11:56;;;;;;;5.05;1.80;;;;;;;;;;10314907;28;20501;-63
2022/09/06 23:16:54;;;;;;;2.15;1.92;;;;;;;;;;10318901;28;20490;-64
2022/09/06 23:21:52;;;;;;;2.95;1.77;;;;;;;;;;10318379;28;20040;-63
2022/09/06 23:26:53;;;;;;;5.10;1.95;;;;;;;;;;10309885;28;20068;-63
2022/09/06 23:31:51;;;;;;;3.00;1.70;;;;;;;;;;10304005;28;20077;-64
2022/09/06 23:36:51;;;;;;;5.25;2.00;;;;;;;;;;10305001;28;20069;-64
2022/09/06 23:41:49;;;;;;;2.97;2.00;;;;;;;;;;10305231;28;20061;-63
2022/09/06 23:46:49;;;;;;;2.22;1.60;;;;;;;;;;10305474;28;20076;-63
2022/09/06 23:51:47;;;;;;;3.42;1.55;;;;;;;;;;10300573;28;20455;-63
2022/09/06 23:56:46;;;;;;;3.15;1.80;;;;;;;;;;10303765;28;20177;-62
